Terminal Aerodrome Forecast
Issued by NWS

Current Version | Previous Version | Text Only | Print | Product List | Glossary Off
Versions: 1 2 3 4 5 6 7 8 9 10 11 12 13 14 15 16 17 18 19 20 21 22 23 24

000
FTUS41 KRLX 141740
TAFCKB
TAF
KCKB 141740Z 1418/1518 00000KT 3SM -RA OVC003
      TEMPO 1418/1421 1SM -RA OVC005
     FM142100 00000KT 1 1/2SM -RA OVC003
     FM150000 00000KT 3SM BR OVC003
     FM150300 00000KT 5SM BR OVC006
     FM150800 00000KT 4SM BR OVC015
     FM151000 00000KT 1SM BR SCT002
     FM151400 00000KT P6SM BKN130=

USA.gov is the U.S. government's official web portal to all federal, state and local government web resources and services.